Time;durP1;ratioP1;P1;durP2;ratioP2;P2;SDS_P1;SDS_P2;PMS_P1;PMS_P2;Temp;Humidity;BMP_temperature;BMP_pressure;BME280_temperature;BME280_humidity;BME280_pressure;Samples;Min_cycle;Max_cycle;Signal;HPM_P1;HPM_P2
2023/02/08 05:32:20;;;;;;;;;56.00;43.00;;;;;;;;6392673;22;45320;-62
2023/02/08 05:34:45;;;;;;;;;49.75;41.50;;;;;;;;6402602;22;45258;-62
2023/02/08 05:37:11;;;;;;;;;54.50;37.75;;;;;;;;6403076;22;45211;-63
2023/02/08 05:39:36;;;;;;;;;51.75;42.00;;;;;;;;6403519;22;45266;-62
2023/02/08 05:42:01;;;;;;;;;46.50;37.25;;;;;;;;6403273;22;45631;-62
2023/02/08 05:44:27;;;;;;;;;65.50;45.00;;;;;;;;6402667;22;45500;-62
2023/02/08 05:46:52;;;;;;;;;47.75;43.25;;;;;;;;6403696;22;45177;-63
2023/02/08 05:49:17;;;;;;;;;65.75;51.50;;;;;;;;6403015;22;45397;-61
2023/02/08 05:51:42;;;;;;;;;63.75;49.75;;;;;;;;6404482;22;45391;-61
2023/02/08 05:54:07;;;;;;;;;61.00;45.50;;;;;;;;6402897;22;46046;-62
2023/02/08 05:56:33;;;;;;;;;57.50;43.00;;;;;;;;6403428;22;45676;-63
2023/02/08 05:58:59;;;;;;;;;67.50;52.25;;;;;;;;6403940;22;45228;-62
2023/02/08 06:01:25;;;;;;;;;66.50;52.50;;;;;;;;6403058;22;45246;-62
2023/02/08 06:03:50;;;;;;;;;63.00;50.25;;;;;;;;6403187;22;45279;-62
2023/02/08 06:06:15;;;;;;;;;67.00;51.25;;;;;;;;6402369;22;45379;-62
2023/02/08 06:08:40;;;;;;;;;67.00;52.25;;;;;;;;6404056;22;45505;-62
2023/02/08 06:11:05;;;;;;;;;64.75;52.75;;;;;;;;6402422;22;45412;-63
2023/02/08 06:13:31;;;;;;;;;58.75;45.00;;;;;;;;6403619;22;46173;-62
2023/02/08 06:15:57;;;;;;;;;55.50;46.50;;;;;;;;6403466;22;45351;-62
2023/02/08 06:18:22;;;;;;;;;60.25;46.25;;;;;;;;6402811;22;45527;-61
2023/02/08 06:20:47;;;;;;;;;58.25;46.25;;;;;;;;6403206;22;45311;-63
2023/02/08 06:23:13;;;;;;;;;61.50;48.25;;;;;;;;6402825;22;45492;-63
2023/02/08 06:25:38;;;;;;;;;63.00;48.50;;;;;;;;6402994;22;45327;-63
2023/02/08 06:28:03;;;;;;;;;28.25;19.75;;;;;;;;6403520;22;45490;-63
2023/02/08 06:30:29;;;;;;;;;66.00;48.75;;;;;;;;6402856;22;45320;-62
2023/02/08 06:32:54;;;;;;;;;59.25;47.50;;;;;;;;6400223;22;46180;-63
2023/02/08 06:35:19;;;;;;;;;67.00;48.25;;;;;;;;6372998;22;45376;-63
2023/02/08 06:37:44;;;;;;;;;61.50;49.25;;;;;;;;6402281;22;45365;-63
2023/02/08 06:40:10;;;;;;;;;56.25;47.00;;;;;;;;6402946;22;45417;-62
2023/02/08 06:42:35;;;;;;;;;61.00;45.75;;;;;;;;6402993;22;46033;-68
2023/02/08 06:45:00;;;;;;;;;63.50;44.75;;;;;;;;6402861;22;45403;-63
2023/02/08 06:47:26;;;;;;;;;58.75;50.00;;;;;;;;6402884;22;45579;-63
2023/02/08 06:49:51;;;;;;;;;62.75;45.75;;;;;;;;6402019;22;55975;-63
2023/02/08 06:52:17;;;;;;;;;58.75;45.75;;;;;;;;6401449;22;46343;-64
2023/02/08 06:54:42;;;;;;;;;64.50;46.25;;;;;;;;6402412;22;45343;-64
2023/02/08 06:57:08;;;;;;;;;52.50;43.00;;;;;;;;6402396;22;45223;-63
2023/02/08 06:59:33;;;;;;;;;54.25;44.25;;;;;;;;6403224;22;45190;-64
2023/02/08 07:01:59;;;;;;;;;59.00;45.50;;;;;;;;6403008;22;45261;-64
2023/02/08 07:04:24;;;;;;;;;62.50;47.25;;;;;;;;6402086;22;45355;-63
2023/02/08 07:06:49;;;;;;;;;59.25;43.50;;;;;;;;6398463;22;45556;-64
2023/02/08 07:09:15;;;;;;;;;57.00;43.75;;;;;;;;6401501;22;45327;-63
2023/02/08 07:11:40;;;;;;;;;43.25;41.25;;;;;;;;6402140;22;45365;-64
2023/02/08 07:14:05;;;;;;;;;56.50;42.00;;;;;;;;6402297;22;45625;-64
2023/02/08 07:16:30;;;;;;;;;58.50;45.00;;;;;;;;6403327;22;45571;-64
2023/02/08 07:18:55;;;;;;;;;60.50;44.25;;;;;;;;6402830;22;45319;-64
2023/02/08 07:21:21;;;;;;;;;59.25;45.75;;;;;;;;6402986;22;45506;-64
2023/02/08 07:23:46;;;;;;;;;48.00;41.25;;;;;;;;6401315;22;45323;-64
2023/02/08 07:26:13;;;;;;;;;58.00;45.00;;;;;;;;6401550;22;45501;-64
2023/02/08 07:28:38;;;;;;;;;57.00;40.00;;;;;;;;6402896;22;45409;-64
2023/02/08 07:31:04;;;;;;;;;44.75;39.00;;;;;;;;6400687;22;46520;-64
2023/02/08 07:33:30;;;;;;;;;49.50;41.50;;;;;;;;6401797;22;45383;-60
2023/02/08 07:35:55;;;;;;;;;48.00;38.00;;;;;;;;6400309;22;45616;-60
2023/02/08 07:38:20;;;;;;;;;44.50;38.25;;;;;;;;6400827;22;45368;-60
2023/02/08 07:40:45;;;;;;;;;51.75;41.25;;;;;;;;6398983;22;45757;-61
2023/02/08 07:43:10;;;;;;;;;58.25;42.00;;;;;;;;6401442;22;45254;-60
2023/02/08 07:45:36;;;;;;;;;52.50;41.75;;;;;;;;6399790;22;45202;-60
2023/02/08 07:48:02;;;;;;;;;59.50;45.50;;;;;;;;6400356;22;45514;-60
2023/02/08 07:50:27;;;;;;;;;48.00;42.00;;;;;;;;6399945;22;46151;-60
2023/02/08 07:52:52;;;;;;;;;54.00;42.25;;;;;;;;6403352;22;45268;-61
2023/02/08 07:55:19;;;;;;;;;47.00;39.00;;;;;;;;6374115;22;45329;-60
2023/02/08 07:57:45;;;;;;;;;55.50;41.00;;;;;;;;6402458;22;45348;-66
2023/02/08 08:00:10;;;;;;;;;49.00;43.00;;;;;;;;6401306;22;46395;-67
2023/02/08 08:02:36;;;;;;;;;49.75;39.00;;;;;;;;6403249;22;45425;-66
2023/02/08 08:05:01;;;;;;;;;48.50;41.25;;;;;;;;6403748;22;45373;-67
2023/02/08 08:07:26;;;;;;;;;48.25;42.00;;;;;;;;6403651;22;45317;-66
2023/02/08 08:09:51;;;;;;;;;63.00;43.25;;;;;;;;6403265;22;45477;-65
2023/02/08 08:12:16;;;;;;;;;51.25;41.50;;;;;;;;6402417;22;45286;-65
2023/02/08 08:14:42;;;;;;;;;47.25;41.25;;;;;;;;6401715;22;45606;-66
2023/02/08 08:17:07;;;;;;;;;55.25;45.00;;;;;;;;6402842;22;45312;-66
2023/02/08 08:19:32;;;;;;;;;50.75;42.25;;;;;;;;6403030;22;45939;-66
2023/02/08 08:21:57;;;;;;;;;53.25;41.50;;;;;;;;6404499;22;45229;-66
2023/02/08 08:24:22;;;;;;;;;53.25;40.00;;;;;;;;6403876;22;45455;-66
2023/02/08 08:26:48;;;;;;;;;52.00;41.50;;;;;;;;6403747;22;45433;-64
2023/02/08 08:29:13;;;;;;;;;55.50;40.00;;;;;;;;6403160;22;46185;-64
2023/02/08 08:31:39;;;;;;;;;54.50;42.50;;;;;;;;6402698;22;45434;-65
2023/02/08 08:34:04;;;;;;;;;43.75;34.75;;;;;;;;6402728;22;45263;-65
2023/02/08 08:36:29;;;;;;;;;48.25;42.25;;;;;;;;6374713;22;45280;-65
2023/02/08 08:38:54;;;;;;;;;45.75;37.75;;;;;;;;6403385;22;45434;-66
2023/02/08 08:41:21;;;;;;;;;49.50;40.75;;;;;;;;6402761;22;45344;-66
2023/02/08 08:43:47;;;;;;;;;39.75;35.50;;;;;;;;6402891;22;45272;-66
2023/02/08 08:46:12;;;;;;;;;49.50;39.00;;;;;;;;6374210;22;45475;-66
2023/02/08 08:48:37;;;;;;;;;41.25;37.25;;;;;;;;6402631;22;46126;-66
2023/02/08 08:51:03;;;;;;;;;49.00;42.75;;;;;;;;6403240;22;45300;-66
2023/02/08 08:53:29;;;;;;;;;49.75;40.25;;;;;;;;6403583;22;45282;-66
2023/02/08 08:55:54;;;;;;;;;49.00;40.75;;;;;;;;6402086;22;45451;-66
2023/02/08 08:58:19;;;;;;;;;57.25;41.00;;;;;;;;6403066;22;46030;-65
2023/02/08 09:00:44;;;;;;;;;51.25;41.00;;;;;;;;6402633;22;45243;-65
2023/02/08 09:03:10;;;;;;;;;50.75;39.25;;;;;;;;6402194;22;45281;-65
2023/02/08 09:05:35;;;;;;;;;39.00;35.50;;;;;;;;6402601;22;45357;-66
2023/02/08 09:08:02;;;;;;;;;41.50;33.00;;;;;;;;6402893;22;46291;-65
2023/02/08 09:10:27;;;;;;;;;42.75;39.00;;;;;;;;6402177;22;45384;-65
2023/02/08 09:12:52;;;;;;;;;33.25;32.25;;;;;;;;6403393;22;45340;-65
2023/02/08 09:15:17;;;;;;;;;45.25;39.00;;;;;;;;6402684;22;45339;-66
2023/02/08 09:17:43;;;;;;;;;47.00;39.25;;;;;;;;6403274;22;46042;-67
2023/02/08 09:20:08;;;;;;;;;46.25;38.25;;;;;;;;6402696;22;45339;-66
2023/02/08 09:22:34;;;;;;;;;59.75;41.00;;;;;;;;6374481;22;45370;-66
2023/02/08 09:25:00;;;;;;;;;51.25;38.25;;;;;;;;6403033;22;45338;-65
2023/02/08 09:27:26;;;;;;;;;51.00;38.50;;;;;;;;6402733;22;45920;-66
2023/02/08 09:29:51;;;;;;;;;42.75;37.25;;;;;;;;6403357;22;45297;-66
2023/02/08 09:32:16;;;;;;;;;46.75;41.25;;;;;;;;6402485;22;45484;-66
2023/02/08 09:34:41;;;;;;;;;47.00;38.00;;;;;;;;6402166;22;45429;-66
2023/02/08 09:37:06;;;;;;;;;48.50;35.50;;;;;;;;6402841;22;45177;-66
2023/02/08 09:39:32;;;;;;;;;50.75;40.00;;;;;;;;6403215;22;45428;-66
2023/02/08 09:42:06;;;;;;;;;46.25;38.00;;;;;;;;6403753;22;45272;-66
2023/02/08 09:44:37;;;;;;;;;44.00;38.25;;;;;;;;6402946;22;45319;-66
2023/02/08 09:47:03;;;;;;;;;55.75;43.75;;;;;;;;6403133;22;45412;-66
2023/02/08 09:49:42;;;;;;;;;50.25;36.50;;;;;;;;6374441;22;45480;-66
2023/02/08 09:52:12;;;;;;;;;36.50;32.25;;;;;;;;6402656;22;45402;-66
2023/02/08 09:55:03;;;;;;;;;45.50;33.75;;;;;;;;6403171;22;45199;-66
2023/02/08 09:57:32;;;;;;;;;41.00;36.00;;;;;;;;6396172;22;46027;-66
2023/02/08 10:00:11;;;;;;;;;38.75;37.00;;;;;;;;6403214;22;45358;-66
2023/02/08 10:02:38;;;;;;;;;45.25;38.00;;;;;;;;6402545;22;45288;-66
2023/02/08 10:05:05;;;;;;;;;49.25;37.75;;;;;;;;6403324;22;45658;-65
2023/02/08 10:07:31;;;;;;;;;41.25;34.75;;;;;;;;6402306;22;45281;-65
2023/02/08 10:09:58;;;;;;;;;39.00;34.50;;;;;;;;6402774;22;45322;-65
2023/02/08 10:12:42;;;;;;;;;32.50;30.25;;;;;;;;6402871;22;45317;-65
2023/02/08 10:15:22;;;;;;;;;38.25;34.00;;;;;;;;6373146;22;46290;-66
2023/02/08 10:17:54;;;;;;;;;47.00;35.00;;;;;;;;6402639;22;46275;-64
2023/02/08 10:20:36;;;;;;;;;38.75;35.25;;;;;;;;6401980;22;45314;-66
2023/02/08 10:23:20;;;;;;;;;39.75;33.75;;;;;;;;6403294;22;45375;-66
2023/02/08 10:25:45;;;;;;;;;39.33;33.67;;;;;;;;6403000;22;45352;-65
2023/02/08 10:28:28;;;;;;;;;40.00;32.67;;;;;;;;6401573;22;45916;-66
2023/02/08 10:30:54;;;;;;;;;45.33;37.33;;;;;;;;6403025;22;45219;-64
2023/02/08 10:33:36;;;;;;;;;40.33;33.33;;;;;;;;6402656;22;45315;-65
2023/02/08 10:36:02;;;;;;;;;40.67;34.00;;;;;;;;6403474;22;45341;-65
2023/02/08 10:38:30;;;;;;;;;40.00;34.33;;;;;;;;6402564;22;45676;-65
2023/02/08 10:40:57;;;;;;;;;40.67;33.67;;;;;;;;6402375;22;45315;-65
2023/02/08 10:43:30;;;;;;;;;39.00;33.33;;;;;;;;6402662;22;45239;-65
2023/02/08 10:45:55;;;;;;;;;37.00;33.67;;;;;;;;6402456;22;45696;-64
2023/02/08 10:48:28;;;;;;;;;47.67;35.67;;;;;;;;6400371;22;45260;-64
2023/02/08 10:50:53;;;;;;;;;39.67;33.67;;;;;;;;6403355;22;45665;-65
2023/02/08 10:53:19;;;;;;;;;39.67;33.00;;;;;;;;6402859;22;45228;-65
2023/02/08 10:55:46;;;;;;;;;36.67;31.67;;;;;;;;6402716;22;45302;-64
2023/02/08 10:58:14;;;;;;;;;34.33;31.67;;;;;;;;6402284;22;45384;-64
2023/02/08 11:00:40;;;;;;;;;40.67;36.00;;;;;;;;6402304;22;45435;-65
2023/02/08 11:03:25;;;;;;;;;35.00;31.00;;;;;;;;6402434;22;45369;-66
2023/02/08 11:05:51;;;;;;;;;34.00;31.00;;;;;;;;6402727;22;45550;-65
2023/02/08 11:08:21;;;;;;;;;40.00;34.33;;;;;;;;6402045;22;46764;-65
2023/02/08 11:11:19;;;;;;;;;43.33;37.00;;;;;;;;6402090;22;45265;-65
2023/02/08 11:13:47;;;;;;;;;45.00;35.33;;;;;;;;6332309;22;45700;-65
2023/02/08 11:16:19;;;;;;;;;45.67;35.33;;;;;;;;6400787;22;45268;-65
2023/02/08 11:18:52;;;;;;;;;41.33;35.00;;;;;;;;6401687;22;46604;-61
2023/02/08 11:21:28;;;;;;;;;38.00;33.67;;;;;;;;6401982;22;45846;-61
2023/02/08 11:23:54;;;;;;;;;39.00;35.00;;;;;;;;6401637;22;45254;-61
2023/02/08 11:26:22;;;;;;;;;42.67;36.67;;;;;;;;6401134;22;45372;-61
2023/02/08 11:29:06;;;;;;;;;41.33;33.33;;;;;;;;6401894;22;46036;-65
2023/02/08 11:31:34;;;;;;;;;36.00;33.67;;;;;;;;6398897;22;45292;-66
2023/02/08 11:34:02;;;;;;;;;38.33;33.00;;;;;;;;6401823;22;45288;-66
2023/02/08 11:36:28;;;;;;;;;33.00;28.00;;;;;;;;6401663;22;45375;-66
2023/02/08 11:38:53;;;;;;;;;33.33;29.67;;;;;;;;6401701;22;46755;-62
2023/02/08 11:41:19;;;;;;;;;32.33;29.33;;;;;;;;6401084;22;45381;-62
2023/02/08 11:43:53;;;;;;;;;31.00;29.33;;;;;;;;6402510;22;45353;-61
2023/02/08 11:46:22;;;;;;;;;30.33;27.67;;;;;;;;6399647;22;45384;-61
2023/02/08 11:48:51;;;;;;;;;44.00;35.00;;;;;;;;6401414;22;45593;-61
2023/02/08 11:51:31;;;;;;;;;27.67;27.67;;;;;;;;6400954;22;45407;-61
2023/02/08 11:53:57;;;;;;;;;30.33;28.67;;;;;;;;6401581;22;45590;-61
2023/02/08 11:56:27;;;;;;;;;30.67;29.00;;;;;;;;6400925;22;45451;-64
2023/02/08 11:59:03;;;;;;;;;33.00;30.33;;;;;;;;6401727;22;46121;-61
2023/02/08 12:01:30;;;;;;;;;30.67;28.00;;;;;;;;6401288;22;45307;-63
2023/02/08 12:03:57;;;;;;;;;29.67;29.00;;;;;;;;6402060;22;45418;-61
2023/02/08 12:06:25;;;;;;;;;38.00;33.00;;;;;;;;6401369;22;45919;-62
2023/02/08 12:09:09;;;;;;;;;36.33;31.00;;;;;;;;6401899;22;45358;-62
2023/02/08 12:11:35;;;;;;;;;31.33;26.67;;;;;;;;6401953;22;45280;-61
2023/02/08 12:14:00;;;;;;;;;30.33;29.33;;;;;;;;6400374;22;45375;-62
2023/02/08 12:16:48;;;;;;;;;33.00;30.67;;;;;;;;6372011;22;45620;-62
2023/02/08 12:19:22;;;;;;;;;30.33;29.33;;;;;;;;6398692;22;45478;-61
2023/02/08 12:21:59;;;;;;;;;38.00;33.33;;;;;;;;6399487;22;45302;-62
2023/02/08 12:24:43;;;;;;;;;30.00;28.67;;;;;;;;6401234;22;45400;-60
2023/02/08 12:27:08;;;;;;;;;29.67;24.67;;;;;;;;6401161;22;45679;-60
2023/02/08 12:29:41;;;;;;;;;27.67;25.67;;;;;;;;6399435;22;45961;-60
2023/02/08 12:32:12;;;;;;;;;32.33;29.67;;;;;;;;6395424;22;45441;-61
2023/02/08 12:34:43;;;;;;;;;39.33;33.00;;;;;;;;6396986;22;45312;-60
2023/02/08 12:42:52;;;;;;;;;33.00;31.33;;;;;;;;6402797;22;45301;-60
2023/02/08 12:45:26;;;;;;;;;34.67;30.00;;;;;;;;6402583;22;45198;-60
2023/02/08 12:47:58;;;;;;;;;35.33;31.67;;;;;;;;6402301;22;45266;-61
2023/02/08 12:50:42;;;;;;;;;36.33;31.33;;;;;;;;6400246;22;47057;-60
2023/02/08 12:53:21;;;;;;;;;32.67;32.00;;;;;;;;6400199;22;45340;-60
2023/02/08 12:55:48;;;;;;;;;36.67;31.00;;;;;;;;6402379;22;45378;-60
2023/02/08 12:58:31;;;;;;;;;33.33;31.67;;;;;;;;6401545;22;45232;-60
2023/02/08 13:01:01;;;;;;;;;35.00;31.67;;;;;;;;6402123;22;46080;-60
2023/02/08 13:03:33;;;;;;;;;34.33;30.67;;;;;;;;6401967;22;45269;-60
2023/02/08 13:05:59;;;;;;;;;33.33;31.67;;;;;;;;6402634;22;45379;-60
2023/02/08 13:08:38;;;;;;;;;38.00;33.33;;;;;;;;6402108;22;45576;-61
2023/02/08 13:11:09;;;;;;;;;37.67;31.67;;;;;;;;6402090;22;46411;-60
2023/02/08 13:13:36;;;;;;;;;27.33;23.00;;;;;;;;6373642;22;45286;-60
2023/02/08 13:16:08;;;;;;;;;43.00;33.00;;;;;;;;6402279;22;45341;-60
2023/02/08 13:18:36;;;;;;;;;34.00;29.67;;;;;;;;6402246;22;45179;-60
2023/02/08 13:21:04;;;;;;;;;31.67;30.67;;;;;;;;6402258;22;45368;-60
2023/02/08 13:23:33;;;;;;;;;28.00;25.00;;;;;;;;6402155;22;45404;-60
2023/02/08 13:26:19;;;;;;;;;33.67;31.33;;;;;;;;6401992;22;45325;-60
2023/02/08 13:28:49;;;;;;;;;38.00;32.67;;;;;;;;6402308;22;45481;-60
2023/02/08 13:31:18;;;;;;;;;33.33;29.67;;;;;;;;6400784;22;45355;-60
2023/02/08 13:33:51;;;;;;;;;36.33;30.67;;;;;;;;6401480;22;45713;-60
2023/02/08 13:36:23;;;;;;;;;32.00;29.00;;;;;;;;6402067;22;45672;-61
2023/02/08 13:38:48;;;;;;;;;37.67;31.67;;;;;;;;6402455;22;45446;-60
2023/02/08 13:41:16;;;;;;;;;35.33;29.67;;;;;;;;6400976;22;45398;-60
2023/02/08 13:43:46;;;;;;;;;26.33;26.33;;;;;;;;6401909;22;45344;-60
2023/02/08 13:46:11;;;;;;;;;39.00;31.67;;;;;;;;6401717;22;45564;-61
2023/02/08 13:48:44;;;;;;;;;35.00;31.00;;;;;;;;6401435;22;45347;-61
2023/02/08 13:51:29;;;;;;;;;30.00;29.67;;;;;;;;6394840;22;46221;-63
2023/02/08 13:53:55;;;;;;;;;37.00;31.67;;;;;;;;6376583;22;45681;-62
2023/02/08 13:56:40;;;;;;;;;41.00;34.33;;;;;;;;6401043;22;45290;-61
2023/02/08 13:59:25;;;;;;;;;38.00;32.00;;;;;;;;6400469;22;45269;-61
2023/02/08 14:02:09;;;;;;;;;32.33;29.67;;;;;;;;6400490;22;47120;-61
2023/02/08 14:04:35;;;;;;;;;34.33;29.67;;;;;;;;6402070;22;45285;-61
2023/02/08 14:07:11;;;;;;;;;30.67;28.00;;;;;;;;6400969;22;45235;-61
2023/02/08 14:09:45;;;;;;;;;44.67;32.33;;;;;;;;6401686;22;45467;-62
2023/02/08 14:12:42;;;;;;;;;34.67;31.33;;;;;;;;6400200;22;47167;-61
2023/02/08 14:15:14;;;;;;;;;30.33;26.00;;;;;;;;6328441;22;45408;-61
2023/02/08 14:17:41;;;;;;;;;32.33;28.67;;;;;;;;6401189;22;45304;-60
2023/02/08 14:20:07;;;;;;;;;31.00;28.67;;;;;;;;6401267;22;45360;-60
2023/02/08 14:22:37;;;;;;;;;33.00;30.00;;;;;;;;6401813;22;45300;-60
2023/02/08 14:25:15;;;;;;;;;32.00;28.67;;;;;;;;6400655;22;45996;-60
2023/02/08 14:27:42;;;;;;;;;37.00;31.67;;;;;;;;6400970;22;45254;-61
2023/02/08 14:30:19;;;;;;;;;39.67;33.33;;;;;;;;6400803;22;45323;-61
2023/02/08 14:32:46;;;;;;;;;34.00;30.33;;;;;;;;6337405;22;45361;-61
2023/02/08 14:35:12;;;;;;;;;32.67;31.00;;;;;;;;6337168;22;45306;-61
2023/02/08 14:37:37;;;;;;;;;30.67;29.33;;;;;;;;6336281;22;45256;-61
2023/02/08 14:40:24;;;;;;;;;33.00;26.33;;;;;;;;6333107;22;45803;-61
2023/02/08 14:42:52;;;;;;;;;32.33;26.67;;;;;;;;6337674;22;45294;-60
2023/02/08 14:45:30;;;;;;;;;47.67;37.33;;;;;;;;6335654;22;45416;-60
2023/02/08 14:47:58;;;;;;;;;40.25;35.00;;;;;;;;6337667;22;45453;-60
2023/02/08 14:50:25;;;;;;;;;34.67;29.67;;;;;;;;6336825;22;45653;-60
2023/02/08 14:53:06;;;;;;;;;30.33;26.67;;;;;;;;6336533;22;46045;-63
2023/02/08 14:55:36;;;;;;;;;33.00;27.33;;;;;;;;6337272;22;45269;-60
2023/02/08 14:58:06;;;;;;;;;28.33;25.33;;;;;;;;6336121;22;45415;-60
2023/02/08 15:00:33;;;;;;;;;28.00;25.33;;;;;;;;6337237;22;45361;-59
2023/02/08 15:02:59;;;;;;;;;30.00;28.33;;;;;;;;6337461;22;46125;-60
2023/02/08 15:05:28;;;;;;;;;31.33;27.67;;;;;;;;6337165;22;45327;-60
2023/02/08 15:07:58;;;;;;;;;29.00;25.67;;;;;;;;6338355;22;45162;-60
2023/02/08 15:10:24;;;;;;;;;26.33;22.33;;;;;;;;6337648;22;45685;-60
2023/02/08 15:12:54;;;;;;;;;26.00;21.33;;;;;;;;6337803;22;45933;-61
2023/02/08 15:15:40;;;;;;;;;30.67;18.00;;;;;;;;6336848;22;45239;-61
2023/02/08 15:18:14;;;;;;;;;28.00;25.67;;;;;;;;6337689;22;45359;-61
2023/02/08 15:20:39;;;;;;;;;29.33;26.67;;;;;;;;6338124;22;45318;-60
2023/02/08 15:23:18;;;;;;;;;28.33;26.67;;;;;;;;6335876;22;47088;-60
2023/02/08 15:25:52;;;;;;;;;25.00;23.33;;;;;;;;6337450;22;45127;-60
2023/02/08 15:28:19;;;;;;;;;27.00;23.67;;;;;;;;6337640;22;45250;-61
2023/02/08 15:30:45;;;;;;;;;27.00;24.67;;;;;;;;6343842;22;45432;-60
2023/02/08 15:33:16;;;;;;;;;29.00;29.00;;;;;;;;6368908;22;45953;-60
2023/02/08 15:35:42;;;;;;;;;25.67;21.67;;;;;;;;6368805;22;45355;-60
2023/02/08 15:38:14;;;;;;;;;25.00;23.00;;;;;;;;6369453;22;45359;-60
2023/02/08 15:40:39;;;;;;;;;26.00;22.33;;;;;;;;6369366;22;45302;-60
2023/02/08 15:43:07;;;;;;;;;35.00;25.33;;;;;;;;6368718;22;45454;-60
2023/02/08 15:45:33;;;;;;;;;36.33;30.00;;;;;;;;6369393;22;45278;-61
2023/02/08 15:47:59;;;;;;;;;109.75;89.00;;;;;;;;6369344;22;45240;-60
2023/02/08 15:50:24;;;;;;;;;34.00;27.67;;;;;;;;6369190;22;45279;-61
2023/02/08 15:53:00;;;;;;;;;38.67;33.00;;;;;;;;6369407;22;46200;-60
2023/02/08 15:55:29;;;;;;;;;45.25;36.75;;;;;;;;6368455;22;45285;-60
2023/02/08 15:57:56;;;;;;;;;30.00;26.33;;;;;;;;6370171;22;45433;-59
2023/02/08 16:00:24;;;;;;;;;29.00;24.67;;;;;;;;6368662;22;45456;-60
2023/02/08 16:02:52;;;;;;;;;28.00;25.67;;;;;;;;6369544;22;45409;-60
2023/02/08 16:05:25;;;;;;;;;24.33;24.33;;;;;;;;6367854;22;45307;-60
2023/02/08 16:07:51;;;;;;;;;30.00;27.00;;;;;;;;6369283;22;45338;-61
2023/02/08 16:10:22;;;;;;;;;19.33;16.00;;;;;;;;6367060;22;45442;-61
2023/02/08 16:12:56;;;;;;;;;27.67;23.00;;;;;;;;6370254;22;45429;-61
2023/02/08 16:15:42;;;;;;;;;33.33;25.67;;;;;;;;6368805;22;45957;-61
2023/02/08 16:18:25;;;;;;;;;28.00;26.75;;;;;;;;6370338;22;45368;-61
2023/02/08 16:20:55;;;;;;;;;26.67;22.00;;;;;;;;6370907;22;45317;-61
2023/02/08 16:23:23;;;;;;;;;23.67;23.00;;;;;;;;6370317;22;46285;-61
2023/02/08 16:25:49;;;;;;;;;28.67;25.00;;;;;;;;6370254;22;45394;-59
2023/02/08 16:28:25;;;;;;;;;27.67;25.00;;;;;;;;6370709;22;45328;-60
2023/02/08 16:30:51;;;;;;;;;32.33;27.67;;;;;;;;6369003;22;45474;-60
2023/02/08 16:33:17;;;;;;;;;35.25;27.50;;;;;;;;6369415;22;45398;-60
2023/02/08 16:35:42;;;;;;;;;35.00;31.00;;;;;;;;6371084;22;45244;-60
2023/02/08 16:38:09;;;;;;;;;27.75;25.25;;;;;;;;6370650;22;45218;-60
2023/02/08 16:40:40;;;;;;;;;25.33;24.33;;;;;;;;6370360;22;45672;-60
2023/02/08 16:43:26;;;;;;;;;26.00;23.00;;;;;;;;6369111;22;46335;-60
2023/02/08 16:46:10;;;;;;;;;23.67;22.33;;;;;;;;6370068;22;45264;-60
2023/02/08 16:48:38;;;;;;;;;31.00;25.33;;;;;;;;6370911;22;45525;-61
2023/02/08 16:51:11;;;;;;;;;32.67;25.67;;;;;;;;6369641;22;45507;-60
2023/02/08 16:53:36;;;;;;;;;33.25;29.50;;;;;;;;6369677;22;45706;-60
2023/02/08 16:56:01;;;;;;;;;29.75;27.00;;;;;;;;6369854;22;45279;-60
2023/02/08 16:58:27;;;;;;;;;32.50;29.75;;;;;;;;6370136;22;45419;-60
2023/02/08 17:00:52;;;;;;;;;29.00;29.00;;;;;;;;6368628;22;45291;-60
2023/02/08 17:03:17;;;;;;;;;36.75;32.75;;;;;;;;6369318;22;46697;-60
2023/02/08 17:05:43;;;;;;;;;39.75;30.75;;;;;;;;6370979;22;45374;-60
2023/02/08 17:08:15;;;;;;;;;38.25;31.50;;;;;;;;6370751;22;45275;-61
2023/02/08 17:10:41;;;;;;;;;46.25;38.50;;;;;;;;6370777;22;45391;-60
2023/02/08 17:13:08;;;;;;;;;36.75;33.00;;;;;;;;6370368;22;45607;-60
2023/02/08 17:15:33;;;;;;;;;46.25;37.25;;;;;;;;6370675;22;45701;-60
2023/02/08 17:17:58;;;;;;;;;40.25;33.75;;;;;;;;6369867;22;45254;-60
2023/02/08 17:20:28;;;;;;;;;40.00;33.00;;;;;;;;6370807;22;45175;-60
2023/02/08 17:22:55;;;;;;;;;36.50;24.25;;;;;;;;6369065;22;45943;-62
2023/02/08 17:25:21;;;;;;;;;50.00;35.50;;;;;;;;6366163;22;45441;-62
2023/02/08 17:27:53;;;;;;;;;40.75;36.00;;;;;;;;6369639;22;45269;-62
2023/02/08 17:30:23;;;;;;;;;44.50;36.25;;;;;;;;6370815;22;45350;-62
2023/02/08 17:32:49;;;;;;;;;48.25;36.50;;;;;;;;6401799;22;46206;-62
2023/02/08 17:35:16;;;;;;;;;37.50;30.00;;;;;;;;6400338;22;45348;-62
2023/02/08 17:37:41;;;;;;;;;47.25;37.00;;;;;;;;6402375;22;45300;-61
2023/02/08 17:40:07;;;;;;;;;54.25;41.50;;;;;;;;6401178;22;45409;-61
2023/02/08 17:42:32;;;;;;;;;54.50;42.25;;;;;;;;6403523;22;46022;-61
2023/02/08 17:44:57;;;;;;;;;52.25;40.00;;;;;;;;6398891;22;45338;-61
2023/02/08 17:47:23;;;;;;;;;43.75;36.25;;;;;;;;6398412;22;45351;-60
2023/02/08 17:49:48;;;;;;;;;44.00;34.75;;;;;;;;6401494;22;45320;-60
2023/02/08 17:52:13;;;;;;;;;49.25;41.00;;;;;;;;6401527;22;46283;-61
2023/02/08 17:54:38;;;;;;;;;62.25;44.75;;;;;;;;6401244;22;45514;-60
2023/02/08 17:57:04;;;;;;;;;59.25;46.25;;;;;;;;6399313;22;45332;-61
2023/02/08 17:59:29;;;;;;;;;54.00;40.50;;;;;;;;6402144;22;45428;-61
2023/02/08 18:01:54;;;;;;;;;52.00;43.25;;;;;;;;6370449;22;46117;-59
2023/02/08 18:04:20;;;;;;;;;53.00;41.50;;;;;;;;6401163;22;45494;-62
2023/02/08 18:06:45;;;;;;;;;52.75;40.50;;;;;;;;6400341;22;45301;-61
2023/02/08 18:09:11;;;;;;;;;59.50;48.00;;;;;;;;6399893;22;45346;-61
2023/02/08 18:11:36;;;;;;;;;49.25;40.00;;;;;;;;6400141;22;46241;-61
2023/02/08 18:14:01;;;;;;;;;50.25;39.75;;;;;;;;6401990;22;45332;-61
2023/02/08 18:16:26;;;;;;;;;47.75;37.50;;;;;;;;6402092;22;45383;-61
2023/02/08 18:18:55;;;;;;;;;49.75;40.00;;;;;;;;6402714;22;45259;-62
2023/02/08 18:21:24;;;;;;;;;49.75;38.00;;;;;;;;6402332;22;46179;-61
2023/02/08 18:23:49;;;;;;;;;45.00;37.75;;;;;;;;6401650;22;45319;-61
2023/02/08 18:26:15;;;;;;;;;55.75;40.50;;;;;;;;6400073;22;45389;-61
2023/02/08 18:28:41;;;;;;;;;53.00;40.00;;;;;;;;6402781;22;45379;-61
2023/02/08 18:31:07;;;;;;;;;47.50;40.25;;;;;;;;6401477;22;45841;-61
2023/02/08 18:33:33;;;;;;;;;55.00;41.00;;;;;;;;6402131;22;45651;-62
2023/02/08 18:35:58;;;;;;;;;52.25;41.50;;;;;;;;6402204;22;45260;-62
2023/02/08 18:38:24;;;;;;;;;52.25;40.50;;;;;;;;6403156;22;45362;-61
2023/02/08 18:40:49;;;;;;;;;55.00;42.75;;;;;;;;6402088;22;45928;-61
2023/02/08 18:43:15;;;;;;;;;60.25;45.00;;;;;;;;6401781;22;45288;-60
2023/02/08 18:45:40;;;;;;;;;58.00;46.00;;;;;;;;6401504;22;45628;-61
2023/02/08 18:48:06;;;;;;;;;64.00;47.25;;;;;;;;6402412;22;45242;-61
2023/02/08 18:50:31;;;;;;;;;52.25;40.00;;;;;;;;6401797;22;46083;-61
2023/02/08 18:52:56;;;;;;;;;56.50;44.50;;;;;;;;6401931;22;45373;-61
2023/02/08 18:55:21;;;;;;;;;57.75;44.75;;;;;;;;6402432;22;45390;-61
2023/02/08 18:57:47;;;;;;;;;27.25;27.00;;;;;;;;6402506;22;45489;-61
2023/02/08 19:00:12;;;;;;;;;59.75;46.25;;;;;;;;6399511;22;46151;-62
2023/02/08 19:02:38;;;;;;;;;55.75;43.00;;;;;;;;6400139;22;45368;-61
2023/02/08 19:05:04;;;;;;;;;51.50;39.75;;;;;;;;6399460;22;45310;-62
2023/02/08 19:07:31;;;;;;;;;63.50;48.25;;;;;;;;6402769;22;45611;-61
2023/02/08 19:09:56;;;;;;;;;69.75;52.50;;;;;;;;6398859;22;47036;-61
2023/02/08 19:12:21;;;;;;;;;62.00;47.00;;;;;;;;6400793;22;45348;-61
2023/02/08 19:14:47;;;;;;;;;60.75;50.00;;;;;;;;6401512;22;45312;-61
2023/02/08 19:17:13;;;;;;;;;62.75;46.00;;;;;;;;6401203;22;45274;-61
2023/02/08 19:19:38;;;;;;;;;65.00;48.00;;;;;;;;6401255;22;45512;-62
2023/02/08 19:22:03;;;;;;;;;60.75;47.00;;;;;;;;6396371;22;45323;-61
2023/02/08 19:24:28;;;;;;;;;65.00;50.00;;;;;;;;6401610;22;45308;-62
2023/02/08 19:26:53;;;;;;;;;65.00;50.00;;;;;;;;6401055;22;45401;-61
2023/02/08 19:29:21;;;;;;;;;68.25;51.00;;;;;;;;6399934;22;47174;-62
2023/02/08 19:31:46;;;;;;;;;63.25;49.50;;;;;;;;6400516;22;45305;-61
2023/02/08 19:34:12;;;;;;;;;45.50;39.00;;;;;;;;6400765;22;45413;-62
2023/02/08 19:36:40;;;;;;;;;65.25;45.75;;;;;;;;6397535;22;45308;-62
2023/02/08 19:39:06;;;;;;;;;56.75;46.75;;;;;;;;6400607;22;46220;-62
2023/02/08 19:41:33;;;;;;;;;72.25;51.75;;;;;;;;6400982;22;45370;-62
2023/02/08 19:43:58;;;;;;;;;74.75;56.00;;;;;;;;6399634;22;45263;-62
2023/02/08 19:46:26;;;;;;;;;54.75;43.25;;;;;;;;6401750;22;45690;-61
2023/02/08 19:48:52;;;;;;;;;57.75;43.25;;;;;;;;6401741;22;46140;-62
2023/02/08 19:51:18;;;;;;;;;51.00;41.75;;;;;;;;6372579;22;45389;-60
2023/02/08 19:53:43;;;;;;;;;48.50;37.75;;;;;;;;6403118;22;45252;-62
2023/02/08 19:56:11;;;;;;;;;55.00;42.75;;;;;;;;6402502;22;45645;-62
2023/02/08 19:58:36;;;;;;;;;45.75;35.25;;;;;;;;6399492;22;46238;-62
2023/02/08 20:01:09;;;;;;;;;42.00;37.25;;;;;;;;6402189;22;45307;-62